createdAt,value
2022-12-01T00:00:42.624Z,20.85
2022-12-01T00:01:27.114Z,20.98
2022-12-01T00:02:22.752Z,20.88
2022-12-01T00:03:18.294Z,20.86
2022-12-01T00:04:13.809Z,20.90
2022-12-01T00:05:20.414Z,20.83
2022-12-01T00:06:16.019Z,20.85
2022-12-01T00:07:11.482Z,20.89
2022-12-01T00:08:07.181Z,20.85
2022-12-01T00:09:02.614Z,20.89
2022-12-01T00:09:58.167Z,20.89
2022-12-01T00:10:53.714Z,20.82
2022-12-01T00:11:49.265Z,20.82
2022-12-01T00:12:44.821Z,20.85
2022-12-01T00:13:40.959Z,20.93
2022-12-01T00:14:36.504Z,20.90
2022-12-01T00:15:32.055Z,20.82
2022-12-01T00:16:27.664Z,20.82
2022-12-01T00:17:23.131Z,20.75
2022-12-01T00:18:18.672Z,20.75
2022-12-01T00:19:14.225Z,20.86
2022-12-01T00:20:09.784Z,20.77
2022-12-01T00:21:05.323Z,20.79
2022-12-01T00:22:00.865Z,20.82
2022-12-01T00:22:56.408Z,20.74
2022-12-01T00:23:51.943Z,20.80
2022-12-01T00:24:47.484Z,20.75
2022-12-01T00:25:43.063Z,20.83
2022-12-01T00:26:38.603Z,20.74
2022-12-01T00:27:34.139Z,20.79
2022-12-01T00:28:29.682Z,20.68
2022-12-01T00:29:25.718Z,20.80
2022-12-01T00:30:21.247Z,20.79
2022-12-01T00:31:16.880Z,20.80
2022-12-01T00:32:12.370Z,20.74
2022-12-01T00:33:07.869Z,20.80
2022-12-01T00:34:09.458Z,20.79
2022-12-01T00:34:59.440Z,20.79
2022-12-01T00:35:54.990Z,20.71
2022-12-01T00:36:50.517Z,20.77
2022-12-01T00:37:46.051Z,20.88
2022-12-01T00:38:41.604Z,20.75
2022-12-01T00:39:37.133Z,20.74
2022-12-01T00:40:32.677Z,20.75
2022-12-01T00:41:28.211Z,20.74
2022-12-01T00:42:23.804Z,20.73
2022-12-01T00:43:19.341Z,20.73
2022-12-01T00:44:15.373Z,20.74
2022-12-01T00:45:10.923Z,20.74
2022-12-01T00:46:06.552Z,20.73
2022-12-01T00:47:02.031Z,20.73
2022-12-01T00:47:57.571Z,20.73
2022-12-01T00:48:53.124Z,20.74
2022-12-01T00:49:49.075Z,20.77
2022-12-01T00:50:44.194Z,20.73
2022-12-01T00:51:39.746Z,20.73
2022-12-01T00:52:35.260Z,20.71
2022-12-01T00:53:19.739Z,20.74
2022-12-01T00:54:15.297Z,20.68
2022-12-01T00:55:10.849Z,20.61
2022-12-01T00:56:06.385Z,20.68
2022-12-01T00:57:01.927Z,20.71
2022-12-01T00:57:57.468Z,20.68
2022-12-01T00:58:53.026Z,20.63
2022-12-01T00:59:49.269Z,20.61
2022-12-01T01:00:44.612Z,20.56
2022-12-01T01:01:40.199Z,20.70
2022-12-01T01:02:35.731Z,20.56
2022-12-01T01:03:31.242Z,20.60
2022-12-01T01:04:26.783Z,20.64
2022-12-01T01:05:22.314Z,20.65
2022-12-01T01:06:17.865Z,20.63
2022-12-01T01:07:13.417Z,20.63
2022-12-01T01:08:09.060Z,20.70
2022-12-01T01:09:04.493Z,20.75
2022-12-01T01:10:00.037Z,20.70
2022-12-01T01:10:55.574Z,20.70
2022-12-01T01:11:51.107Z,20.64
2022-12-01T01:12:46.654Z,20.60
2022-12-01T01:13:42.198Z,20.61
2022-12-01T01:14:37.744Z,20.64
2022-12-01T01:15:33.287Z,20.61
2022-12-01T01:16:28.879Z,20.61
2022-12-01T01:17:13.312Z,20.71
2022-12-01T01:18:19.916Z,20.65
2022-12-01T01:19:15.460Z,20.70
2022-12-01T01:20:11.013Z,20.70
2022-12-01T01:21:06.563Z,20.63
2022-12-01T01:22:02.106Z,20.68
2022-12-01T01:22:58.152Z,20.64
2022-12-01T01:23:53.674Z,20.56
2022-12-01T01:24:49.235Z,20.61
2022-12-01T01:25:44.777Z,20.63
2022-12-01T01:26:40.317Z,20.58
2022-12-01T01:27:35.857Z,20.63
2022-12-01T01:28:20.539Z,20.60
2022-12-01T01:29:16.071Z,20.63
2022-12-01T01:30:11.621Z,20.58
2022-12-01T01:31:07.214Z,20.58
2022-12-01T01:32:02.703Z,20.52
2022-12-01T01:32:58.256Z,20.65
2022-12-01T01:33:53.799Z,20.49
2022-12-01T01:34:49.346Z,20.58
2022-12-01T01:35:34.013Z,20.60
2022-12-01T01:36:29.589Z,20.61
2022-12-01T01:37:25.124Z,20.52
2022-12-01T01:38:20.703Z,20.63
2022-12-01T01:39:16.219Z,20.52
2022-12-01T01:40:11.758Z,20.52
2022-12-01T01:41:07.309Z,20.60
2022-12-01T01:42:02.856Z,20.58
2022-12-01T01:42:58.908Z,20.63
2022-12-01T01:43:44.071Z,20.56
2022-12-01T01:44:39.674Z,20.58
2022-12-01T01:45:35.296Z,20.52
2022-12-01T01:46:30.847Z,20.60
2022-12-01T01:47:26.305Z,20.53
2022-12-01T01:48:21.839Z,20.61
2022-12-01T01:49:17.385Z,20.53
2022-12-01T01:50:12.953Z,20.60
2022-12-01T01:51:08.484Z,20.60
2022-12-01T01:52:04.031Z,20.52
2022-12-01T01:52:59.574Z,20.60
2022-12-01T01:53:55.146Z,20.56
2022-12-01T01:54:50.672Z,20.53
2022-12-01T01:55:46.248Z,20.50
2022-12-01T01:56:41.796Z,20.60
2022-12-01T01:57:37.335Z,20.48
2022-12-01T01:58:32.882Z,20.49
2022-12-01T01:59:28.441Z,20.49
2022-12-01T02:00:13.107Z,20.48
2022-12-01T02:00:57.827Z,20.52
2022-12-01T02:01:53.816Z,20.49
2022-12-01T02:02:49.510Z,20.50
2022-12-01T02:03:44.932Z,20.44
2022-12-01T02:04:40.471Z,20.46
2022-12-01T02:05:36.001Z,20.50
2022-12-01T02:06:31.544Z,20.52
2022-12-01T02:07:27.134Z,20.48
2022-12-01T02:08:22.633Z,20.44
2022-12-01T02:09:18.196Z,20.46
2022-12-01T02:10:02.749Z,20.44
2022-12-01T02:10:58.352Z,20.48
2022-12-01T02:11:53.898Z,20.42
2022-12-01T02:12:49.447Z,20.48
2022-12-01T02:13:44.990Z,20.49
2022-12-01T02:14:40.524Z,20.50
2022-12-01T02:15:36.070Z,20.33
2022-12-01T02:16:31.682Z,20.42
2022-12-01T02:17:27.163Z,20.39
2022-12-01T02:18:22.696Z,20.33
2022-12-01T02:19:18.248Z,20.44
2022-12-01T02:20:13.803Z,20.44
2022-12-01T02:21:09.343Z,20.36
2022-12-01T02:22:04.875Z,20.33
2022-12-01T02:23:00.417Z,20.34
2022-12-01T02:23:55.982Z,20.44
2022-12-01T02:24:51.522Z,20.30
2022-12-01T02:25:47.053Z,20.36
2022-12-01T02:26:42.606Z,20.36
2022-12-01T02:27:38.134Z,20.32
2022-12-01T02:28:33.680Z,20.34
2022-12-01T02:29:29.241Z,20.44
2022-12-01T02:30:24.870Z,20.39
2022-12-01T02:31:20.351Z,20.37
2022-12-01T02:32:15.844Z,20.36
2022-12-01T02:33:11.382Z,20.34
2022-12-01T02:34:06.923Z,20.36
2022-12-01T02:35:02.455Z,20.39
2022-12-01T02:35:57.986Z,20.39
2022-12-01T02:36:53.519Z,20.36
2022-12-01T02:37:49.059Z,20.32
2022-12-01T02:38:44.601Z,20.33
2022-12-01T02:39:29.266Z,20.26
2022-12-01T02:40:24.837Z,20.30
2022-12-01T02:41:20.352Z,20.30
2022-12-01T02:42:15.882Z,20.33
2022-12-01T02:43:11.417Z,20.32
2022-12-01T02:44:06.959Z,20.36
2022-12-01T02:45:02.495Z,20.33
2022-12-01T02:45:58.641Z,20.33
2022-12-01T02:46:54.106Z,20.36
2022-12-01T02:47:50.150Z,20.33
2022-12-01T02:48:45.687Z,20.29
2022-12-01T02:49:41.234Z,20.30
2022-12-01T02:50:36.805Z,20.34
2022-12-01T02:51:32.348Z,20.33
2022-12-01T02:52:27.891Z,20.34
2022-12-01T02:53:23.423Z,20.27
2022-12-01T02:54:18.968Z,20.27
2022-12-01T02:55:14.507Z,20.33
2022-12-01T02:56:10.068Z,20.30
2022-12-01T02:57:05.585Z,20.32
2022-12-01T02:58:01.125Z,20.17
2022-12-01T02:58:56.665Z,20.30
2022-12-01T02:59:52.211Z,20.25
2022-12-01T03:00:36.706Z,20.25
2022-12-01T03:01:32.391Z,20.32
2022-12-01T03:02:27.848Z,20.30
2022-12-01T03:03:23.833Z,20.27
2022-12-01T03:04:19.859Z,20.25
2022-12-01T03:05:15.407Z,20.23
2022-12-01T03:06:00.073Z,20.29
2022-12-01T03:06:55.624Z,20.23
2022-12-01T03:07:51.240Z,20.23
2022-12-01T03:08:46.710Z,20.29
2022-12-01T03:09:42.254Z,20.27
2022-12-01T03:10:37.797Z,20.17
2022-12-01T03:11:33.354Z,20.26
2022-12-01T03:12:28.873Z,20.22
2022-12-01T03:13:24.432Z,20.25
2022-12-01T03:14:19.968Z,20.22
2022-12-01T03:15:15.498Z,20.26
2022-12-01T03:16:11.104Z,20.22
2022-12-01T03:17:06.582Z,20.17
2022-12-01T03:18:02.119Z,20.25
2022-12-01T03:18:57.653Z,20.23
2022-12-01T03:19:53.191Z,20.22
2022-12-01T03:20:48.721Z,20.23
2022-12-01T03:21:44.264Z,20.23
2022-12-01T03:22:39.798Z,20.18
2022-12-01T03:23:35.347Z,20.18
2022-12-01T03:24:30.890Z,20.25
2022-12-01T03:25:26.426Z,20.27
2022-12-01T03:26:21.968Z,20.18
2022-12-01T03:27:17.522Z,20.25
2022-12-01T03:28:21.162Z,20.18
2022-12-01T03:29:08.616Z,20.25
2022-12-01T03:30:04.155Z,20.25
2022-12-01T03:30:48.935Z,20.15
2022-12-01T03:31:44.514Z,20.22
2022-12-01T03:32:39.892Z,20.18
2022-12-01T03:33:35.444Z,20.23
2022-12-01T03:34:20.106Z,20.23
2022-12-01T03:35:15.654Z,20.17
2022-12-01T03:36:11.695Z,20.23
2022-12-01T03:37:07.228Z,20.19
2022-12-01T03:38:02.765Z,20.18
2022-12-01T03:39:05.456Z,20.23
2022-12-01T03:40:01.488Z,20.19
2022-12-01T03:40:56.534Z,20.18
2022-12-01T03:41:52.083Z,20.19
2022-12-01T03:42:47.635Z,20.18
2022-12-01T03:43:43.144Z,20.25
2022-12-01T03:44:38.682Z,20.26
2022-12-01T03:45:34.223Z,20.23
2022-12-01T03:46:29.812Z,20.19
2022-12-01T03:47:25.317Z,20.17
2022-12-01T03:48:20.848Z,20.22
2022-12-01T03:49:16.392Z,20.18
2022-12-01T03:50:11.928Z,20.23
2022-12-01T03:51:07.464Z,20.22
2022-12-01T03:52:03.008Z,20.18
2022-12-01T03:52:58.553Z,20.17
2022-12-01T03:53:54.075Z,20.17
2022-12-01T03:54:49.618Z,20.14
2022-12-01T03:55:45.160Z,20.12
2022-12-01T03:56:40.719Z,20.17
2022-12-01T03:57:36.250Z,20.19
2022-12-01T03:58:31.811Z,20.15
2022-12-01T03:59:27.324Z,20.12
2022-12-01T04:00:22.860Z,20.18
2022-12-01T04:01:19.023Z,20.18
2022-12-01T04:02:14.621Z,20.09
2022-12-01T04:03:10.113Z,20.14
2022-12-01T04:04:05.602Z,20.14
2022-12-01T04:05:01.136Z,20.14
2022-12-01T04:05:56.673Z,20.22
2022-12-01T04:06:52.216Z,20.12
2022-12-01T04:07:47.831Z,20.19
2022-12-01T04:08:43.287Z,20.18
2022-12-01T04:09:38.827Z,20.15
2022-12-01T04:10:34.373Z,20.19
2022-12-01T04:11:32.832Z,20.15
2022-12-01T04:12:25.441Z,20.11
2022-12-01T04:13:20.981Z,20.04
2022-12-01T04:14:16.530Z,20.11
2022-12-01T04:15:12.044Z,20.12
2022-12-01T04:16:07.639Z,20.09
2022-12-01T04:17:03.140Z,20.18
2022-12-01T04:17:58.677Z,20.15
2022-12-01T04:18:54.205Z,20.09
2022-12-01T04:19:50.135Z,20.12
2022-12-01T04:20:45.280Z,20.11
2022-12-01T04:21:40.817Z,20.11
2022-12-01T04:22:36.369Z,20.12
2022-12-01T04:23:31.902Z,20.14
2022-12-01T04:24:27.429Z,20.04
2022-12-01T04:25:22.966Z,20.18
2022-12-01T04:26:18.502Z,20.11
2022-12-01T04:27:14.039Z,20.11
2022-12-01T04:28:09.582Z,20.15
2022-12-01T04:29:05.121Z,20.11
2022-12-01T04:30:00.692Z,20.15
2022-12-01T04:30:56.242Z,20.14
2022-12-01T04:31:51.783Z,20.05
2022-12-01T04:32:47.280Z,20.08
2022-12-01T04:33:42.815Z,20.05
2022-12-01T04:34:38.367Z,20.08
2022-12-01T04:35:33.918Z,20.00
2022-12-01T04:36:29.446Z,20.08
2022-12-01T04:37:24.981Z,20.08
2022-12-01T04:38:20.523Z,20.07
2022-12-01T04:39:16.062Z,20.08
2022-12-01T04:40:11.611Z,20.02
2022-12-01T04:41:07.141Z,20.04
2022-12-01T04:42:02.680Z,20.04
2022-12-01T04:42:58.219Z,20.11
2022-12-01T04:43:53.765Z,20.15
2022-12-01T04:44:49.307Z,20.19
2022-12-01T04:45:44.858Z,20.19
2022-12-01T04:46:40.441Z,20.26
2022-12-01T04:47:35.922Z,20.19
2022-12-01T04:48:31.451Z,20.29
2022-12-01T04:49:26.990Z,20.32
2022-12-01T04:50:22.534Z,20.39
2022-12-01T04:51:18.083Z,20.36
2022-12-01T04:52:13.612Z,20.44
2022-12-01T04:53:09.144Z,20.44
2022-12-01T04:54:04.680Z,20.61
2022-12-01T04:55:00.207Z,20.55
2022-12-01T04:55:55.751Z,20.61
2022-12-01T04:56:51.286Z,20.55
2022-12-01T04:57:46.821Z,20.67
2022-12-01T04:58:42.358Z,20.68
2022-12-01T04:59:37.890Z,20.68
2022-12-01T05:00:33.543Z,20.73
2022-12-01T05:01:28.992Z,20.74
2022-12-01T05:02:24.624Z,20.75
2022-12-01T05:03:20.046Z,20.77
2022-12-01T05:04:15.610Z,20.77
2022-12-01T05:05:11.124Z,20.83
2022-12-01T05:06:06.659Z,20.77
2022-12-01T05:07:02.189Z,20.75
2022-12-01T05:07:57.819Z,20.75
2022-12-01T05:08:53.259Z,20.71
2022-12-01T05:09:48.997Z,20.74
2022-12-01T05:10:44.341Z,20.73
2022-12-01T05:11:39.877Z,20.75
2022-12-01T05:12:35.410Z,20.71
2022-12-01T05:13:30.953Z,20.82
2022-12-01T05:14:26.487Z,20.75
2022-12-01T05:15:22.024Z,20.88
2022-12-01T05:16:17.635Z,20.80
2022-12-01T05:17:13.127Z,20.77
2022-12-01T05:18:09.263Z,20.90
2022-12-01T05:19:04.676Z,20.88
2022-12-01T05:20:00.222Z,20.88
2022-12-01T05:20:55.760Z,20.92
2022-12-01T05:21:51.303Z,20.88
2022-12-01T05:23:03.882Z,20.90
2022-12-01T05:23:31.829Z,21.01
2022-12-01T05:24:30.371Z,20.92
2022-12-01T05:25:25.914Z,21.00
2022-12-01T05:26:21.469Z,20.97
2022-12-01T05:27:16.998Z,21.05
2022-12-01T05:28:12.539Z,21.01
2022-12-01T05:29:08.074Z,21.01
2022-12-01T05:30:03.616Z,21.08
2022-12-01T05:30:59.154Z,21.08
2022-12-01T05:31:54.851Z,21.11
2022-12-01T05:32:50.289Z,21.10
2022-12-01T05:33:45.775Z,21.14
2022-12-01T05:34:41.808Z,21.14
2022-12-01T05:35:37.344Z,21.10
2022-12-01T05:36:32.884Z,21.05
2022-12-01T05:37:28.416Z,21.10
2022-12-01T05:38:23.956Z,21.08
2022-12-01T05:39:19.486Z,21.10
2022-12-01T05:40:15.024Z,21.16
2022-12-01T05:41:10.556Z,21.14
2022-12-01T05:42:06.099Z,21.05
2022-12-01T05:43:01.635Z,21.16
2022-12-01T05:43:57.168Z,21.13
2022-12-01T05:44:52.705Z,21.11
2022-12-01T05:45:48.302Z,21.11
2022-12-01T05:46:43.772Z,21.13
2022-12-01T05:47:39.318Z,21.13
2022-12-01T05:48:34.886Z,21.16
2022-12-01T05:49:30.397Z,21.13
2022-12-01T05:50:25.935Z,21.11
2022-12-01T05:51:21.501Z,21.13
2022-12-01T05:52:17.037Z,21.13
2022-12-01T05:53:12.585Z,21.13
2022-12-01T05:54:08.122Z,21.11
2022-12-01T05:55:03.675Z,21.10
2022-12-01T05:55:59.202Z,21.16
2022-12-01T05:56:54.731Z,21.07
2022-12-01T05:57:50.264Z,21.19
2022-12-01T05:58:45.806Z,21.19
2022-12-01T05:59:41.349Z,21.18
2022-12-01T06:00:42.266Z,21.26
2022-12-01T06:01:32.431Z,21.29
2022-12-01T06:02:27.970Z,21.26
2022-12-01T06:03:23.500Z,21.26
2022-12-01T06:04:19.606Z,21.30
2022-12-01T06:05:15.063Z,21.28
2022-12-01T06:06:10.606Z,21.32
2022-12-01T06:07:06.149Z,21.30
2022-12-01T06:08:02.282Z,21.40
2022-12-01T06:08:57.723Z,21.29
2022-12-01T06:09:53.276Z,21.25
2022-12-01T06:10:48.815Z,21.28
2022-12-01T06:11:48.013Z,21.28
2022-12-01T06:12:40.904Z,21.26
2022-12-01T06:13:36.431Z,21.26
2022-12-01T06:14:31.978Z,21.28
2022-12-01T06:15:27.509Z,21.28
2022-12-01T06:16:23.100Z,21.29
2022-12-01T06:17:18.620Z,21.28
2022-12-01T06:18:14.166Z,21.30
2022-12-01T06:19:09.704Z,21.28
2022-12-01T06:20:05.251Z,21.29
2022-12-01T06:21:00.777Z,21.23
2022-12-01T06:21:56.313Z,21.25
2022-12-01T06:22:51.850Z,21.26
2022-12-01T06:23:47.389Z,21.29
2022-12-01T06:24:42.939Z,21.22
2022-12-01T06:25:38.475Z,21.37
2022-12-01T06:26:34.006Z,21.29
2022-12-01T06:27:30.066Z,21.34
2022-12-01T06:28:25.603Z,21.38
2022-12-01T06:29:21.772Z,21.30
2022-12-01T06:30:17.293Z,21.35
2022-12-01T06:31:13.327Z,21.40
2022-12-01T06:32:09.452Z,21.40
2022-12-01T06:33:05.382Z,21.35
2022-12-01T06:34:01.421Z,21.40
2022-12-01T06:34:56.955Z,21.40
2022-12-01T06:35:53.003Z,21.35
2022-12-01T06:36:48.521Z,21.32
2022-12-01T06:37:44.052Z,21.40
2022-12-01T06:38:39.601Z,21.29
2022-12-01T06:39:35.132Z,21.25
2022-12-01T06:40:30.677Z,21.19
2022-12-01T06:41:26.213Z,21.11
2022-12-01T06:42:21.755Z,21.14
2022-12-01T06:43:17.778Z,21.11
2022-12-01T06:44:13.361Z,21.11
2022-12-01T06:45:08.902Z,21.08
2022-12-01T06:46:04.975Z,21.07
2022-12-01T06:47:00.481Z,21.10
2022-12-01T06:47:56.014Z,21.16
2022-12-01T06:48:51.549Z,21.08
2022-12-01T06:49:47.717Z,21.11
2022-12-01T06:50:43.133Z,21.08
2022-12-01T06:51:38.692Z,21.11
2022-12-01T06:52:34.215Z,21.14
2022-12-01T06:53:29.750Z,21.14
2022-12-01T06:54:25.293Z,21.16
2022-12-01T06:55:20.823Z,21.14
2022-12-01T06:56:16.365Z,21.13
2022-12-01T06:57:11.904Z,21.14
2022-12-01T06:58:07.433Z,21.16
2022-12-01T06:59:02.974Z,21.14
2022-12-01T06:59:58.560Z,21.18
2022-12-01T07:00:54.151Z,21.13
2022-12-01T07:01:49.692Z,21.14
2022-12-01T07:02:45.696Z,21.19
2022-12-01T07:03:41.196Z,21.29
2022-12-01T07:04:37.219Z,21.22
2022-12-01T07:05:32.771Z,21.32
2022-12-01T07:06:28.302Z,21.29
2022-12-01T07:07:23.912Z,21.30
2022-12-01T07:08:19.382Z,21.29
2022-12-01T07:09:14.988Z,21.26
2022-12-01T07:10:10.477Z,21.38
2022-12-01T07:11:06.512Z,21.23
2022-12-01T07:12:02.039Z,21.40
2022-12-01T07:12:57.582Z,21.45
2022-12-01T07:13:53.293Z,21.38
2022-12-01T07:14:48.665Z,21.29
2022-12-01T07:15:44.197Z,21.23
2022-12-01T07:16:40.327Z,21.23
2022-12-01T07:17:35.758Z,21.19
2022-12-01T07:18:31.299Z,21.18
2022-12-01T07:19:26.828Z,21.18
2022-12-01T07:20:22.378Z,21.19
2022-12-01T07:21:18.422Z,21.14
2022-12-01T07:22:13.946Z,21.10
2022-12-01T07:23:09.514Z,21.13
2022-12-01T07:24:05.032Z,21.11
2022-12-01T07:25:00.571Z,21.14
2022-12-01T07:25:56.115Z,21.05
2022-12-01T07:26:51.658Z,21.20
2022-12-01T07:27:47.191Z,21.20
2022-12-01T07:28:42.736Z,21.19
2022-12-01T07:29:38.274Z,21.16
2022-12-01T07:30:33.862Z,21.20
2022-12-01T07:31:29.498Z,21.22
2022-12-01T07:32:24.900Z,21.16
2022-12-01T07:33:20.437Z,21.20
2022-12-01T07:34:16.460Z,21.14
2022-12-01T07:35:12.002Z,21.20
2022-12-01T07:36:07.545Z,21.25
2022-12-01T07:37:03.085Z,21.19
2022-12-01T07:37:58.620Z,21.18
2022-12-01T07:38:54.173Z,21.26
2022-12-01T07:39:50.012Z,21.22
2022-12-01T07:40:45.226Z,21.20
2022-12-01T07:41:40.755Z,21.29
2022-12-01T07:42:36.298Z,21.26
2022-12-01T07:43:31.830Z,21.25
2022-12-01T07:44:27.371Z,21.25
2022-12-01T07:45:23.396Z,21.22
2022-12-01T07:46:23.147Z,21.25
2022-12-01T07:47:14.460Z,21.28
2022-12-01T07:48:10.006Z,21.28
2022-12-01T07:49:05.535Z,21.30
2022-12-01T07:50:01.067Z,21.25
2022-12-01T07:50:56.602Z,21.26
2022-12-01T07:51:52.134Z,21.20
2022-12-01T07:52:47.673Z,21.22
2022-12-01T07:53:43.215Z,21.29
2022-12-01T07:54:38.769Z,21.29
2022-12-01T07:55:34.291Z,21.30
2022-12-01T07:56:30.324Z,21.29
2022-12-01T07:57:25.858Z,20.75
2022-12-01T07:58:21.397Z,20.65
2022-12-01T07:59:16.947Z,20.74
2022-12-01T08:00:12.488Z,20.79
2022-12-01T08:01:08.143Z,20.95
2022-12-01T08:02:03.606Z,20.97
2022-12-01T08:02:59.176Z,21.08
2022-12-01T08:03:54.647Z,21.08
2022-12-01T08:04:50.179Z,21.11
2022-12-01T08:05:45.719Z,21.28
2022-12-01T08:06:41.255Z,21.22
2022-12-01T08:07:36.842Z,21.18
2022-12-01T08:08:32.336Z,21.19
2022-12-01T08:09:27.860Z,21.25
2022-12-01T08:10:23.419Z,21.16
2022-12-01T08:11:18.942Z,21.13
2022-12-01T08:12:14.469Z,21.16
2022-12-01T08:13:14.203Z,21.18
2022-12-01T08:14:05.547Z,21.22
2022-12-01T08:15:01.091Z,21.18
2022-12-01T08:15:57.275Z,21.18
2022-12-01T08:16:52.766Z,21.19
2022-12-01T08:17:48.312Z,21.29
2022-12-01T08:18:43.826Z,21.30
2022-12-01T08:19:39.356Z,21.22
2022-12-01T08:20:34.905Z,21.26
2022-12-01T08:21:30.445Z,21.19
2022-12-01T08:22:25.987Z,21.20
2022-12-01T08:23:21.518Z,21.26
2022-12-01T08:24:17.051Z,21.26
2022-12-01T08:25:12.596Z,21.16
2022-12-01T08:26:08.154Z,21.29
2022-12-01T08:27:04.161Z,21.19
2022-12-01T08:27:59.697Z,21.19
2022-12-01T08:28:55.729Z,21.23
2022-12-01T08:29:51.445Z,21.23
2022-12-01T08:30:46.850Z,21.28
2022-12-01T08:31:42.361Z,21.22
2022-12-01T08:32:27.029Z,21.25
2022-12-01T08:33:23.572Z,21.26
2022-12-01T08:34:19.103Z,21.20
2022-12-01T08:35:14.648Z,21.26
2022-12-01T08:36:10.683Z,21.25
2022-12-01T08:37:06.710Z,21.28
2022-12-01T08:38:02.742Z,21.28
2022-12-01T08:38:58.286Z,21.43
2022-12-01T08:39:54.321Z,21.37
2022-12-01T08:40:50.347Z,21.34
2022-12-01T08:41:45.932Z,21.41
2022-12-01T08:42:41.430Z,21.37
2022-12-01T08:44:33.495Z,21.37
2022-12-01T08:45:29.511Z,21.45
2022-12-01T08:46:25.620Z,21.34
2022-12-01T08:47:21.087Z,21.44
2022-12-01T08:48:16.621Z,21.35
2022-12-01T08:49:12.160Z,21.30
2022-12-01T08:50:07.690Z,21.37
2022-12-01T08:51:03.234Z,21.37
2022-12-01T08:51:58.779Z,21.30
2022-12-01T08:52:54.851Z,21.38
2022-12-01T08:53:50.384Z,21.44
2022-12-01T08:54:45.911Z,21.43
2022-12-01T08:55:41.451Z,21.35
2022-12-01T08:56:37.508Z,21.47
2022-12-01T08:57:33.047Z,21.41
2022-12-01T08:58:29.118Z,21.45
2022-12-01T08:59:24.649Z,21.38
2022-12-01T09:00:20.188Z,21.38
2022-12-01T09:01:15.788Z,21.41
2022-12-01T09:02:11.259Z,21.43
2022-12-01T09:03:06.815Z,21.43
2022-12-01T09:04:02.327Z,21.41
2022-12-01T09:04:47.307Z,21.38
2022-12-01T09:05:43.333Z,21.35
2022-12-01T09:06:38.865Z,21.32
2022-12-01T09:07:34.927Z,21.38
2022-12-01T09:08:30.440Z,21.38
2022-12-01T09:09:25.983Z,21.38
2022-12-01T09:10:21.520Z,21.38
2022-12-01T09:11:17.576Z,21.35
2022-12-01T09:12:13.097Z,21.40
2022-12-01T09:13:08.647Z,21.35
2022-12-01T09:14:04.666Z,21.38
2022-12-01T09:15:00.201Z,21.50
2022-12-01T09:15:55.841Z,21.50
2022-12-01T09:16:51.295Z,21.41
2022-12-01T09:17:46.826Z,21.48
2022-12-01T09:18:42.371Z,21.35
2022-12-01T09:19:37.900Z,21.47
2022-12-01T09:20:33.434Z,21.40
2022-12-01T09:21:28.980Z,21.41
2022-12-01T09:22:24.520Z,21.40
2022-12-01T09:23:20.051Z,21.41
2022-12-01T09:24:15.590Z,21.38
2022-12-01T09:25:11.626Z,21.35
2022-12-01T09:26:12.138Z,21.38
2022-12-01T09:27:02.695Z,21.40
2022-12-01T09:27:58.741Z,21.38
2022-12-01T09:28:54.792Z,21.35
2022-12-01T09:29:51.051Z,21.34
2022-12-01T09:30:46.344Z,21.48
2022-12-01T09:31:41.985Z,21.45
2022-12-01T09:32:37.417Z,21.44
2022-12-01T09:33:33.020Z,21.50
2022-12-01T09:34:17.441Z,21.56
2022-12-01T09:35:12.993Z,21.55
2022-12-01T09:36:20.102Z,21.50
2022-12-01T09:37:15.640Z,21.55
2022-12-01T09:38:11.183Z,21.53
2022-12-01T09:39:13.866Z,21.45
2022-12-01T09:40:09.425Z,21.41
2022-12-01T09:41:04.958Z,21.32
2022-12-01T09:42:00.504Z,21.40
2022-12-01T09:42:56.023Z,21.44
2022-12-01T09:43:51.571Z,21.38
2022-12-01T09:44:47.140Z,21.43
2022-12-01T09:45:42.646Z,21.35
2022-12-01T09:46:27.144Z,21.34
2022-12-01T09:47:22.667Z,21.41
2022-12-01T09:48:29.318Z,21.25
2022-12-01T09:49:13.798Z,21.25
2022-12-01T09:50:20.531Z,21.28
2022-12-01T09:51:16.127Z,21.28
2022-12-01T09:52:00.641Z,21.18
2022-12-01T09:52:56.171Z,21.25
2022-12-01T09:53:51.723Z,21.18
2022-12-01T09:54:47.258Z,21.29
2022-12-01T09:55:55.838Z,21.28
2022-12-01T09:56:49.395Z,21.30
2022-12-01T09:57:44.927Z,21.38
2022-12-01T09:58:40.457Z,21.43
2022-12-01T09:59:24.945Z,21.43
2022-12-01T10:00:09.442Z,21.51
2022-12-01T10:01:05.081Z,21.53
2022-12-01T10:02:11.667Z,21.53
2022-12-01T10:02:56.086Z,21.47
2022-12-01T10:03:51.612Z,21.44
2022-12-01T10:04:47.144Z,21.35
2022-12-01T10:06:25.213Z,21.47
2022-12-01T10:06:38.405Z,21.55
2022-12-01T10:07:22.914Z,21.38
2022-12-01T10:08:22.422Z,21.53
2022-12-01T10:09:25.001Z,21.48
2022-12-01T10:10:10.211Z,21.62
2022-12-01T10:11:16.878Z,21.59
2022-12-01T10:12:12.446Z,21.62
2022-12-01T10:12:58.068Z,21.65
2022-12-01T10:13:53.547Z,21.62
2022-12-01T10:14:49.082Z,21.62
2022-12-01T10:15:55.771Z,21.58
2022-12-01T10:16:51.744Z,21.65
2022-12-01T10:17:36.224Z,21.62
2022-12-01T10:18:42.817Z,21.56
2022-12-01T10:19:38.367Z,21.53
2022-12-01T10:20:33.909Z,21.53
2022-12-01T10:21:18.409Z,21.55
2022-12-01T10:22:13.962Z,21.58
2022-12-01T10:23:09.482Z,21.47
2022-12-01T10:24:05.012Z,21.51
2022-12-01T10:25:00.553Z,21.59
2022-12-01T10:25:56.092Z,21.55
2022-12-01T10:27:03.228Z,21.47
2022-12-01T10:27:58.760Z,21.56
2022-12-01T10:28:54.299Z,21.60
2022-12-01T10:29:50.285Z,21.60
2022-12-01T10:30:45.382Z,21.59
2022-12-01T10:31:29.980Z,21.55
2022-12-01T10:32:36.481Z,21.59
2022-12-01T10:33:32.016Z,21.62
2022-12-01T10:34:16.502Z,21.60
2022-12-01T10:35:12.046Z,21.58
2022-12-01T10:36:07.589Z,21.53
2022-12-01T10:37:03.136Z,21.59
2022-12-01T10:37:58.880Z,21.58
2022-12-01T10:38:54.218Z,21.53
2022-12-01T10:39:50.105Z,21.58
2022-12-01T10:40:45.301Z,21.53
2022-12-01T10:41:40.858Z,21.45
2022-12-01T10:42:36.403Z,21.44
2022-12-01T10:43:31.967Z,21.45
2022-12-01T10:44:27.513Z,21.47
2022-12-01T10:45:23.049Z,21.48
2022-12-01T10:46:18.701Z,21.56
2022-12-01T10:47:14.149Z,21.53
2022-12-01T10:48:09.682Z,21.47
2022-12-01T10:48:54.348Z,21.47
2022-12-01T10:49:50.239Z,21.51
2022-12-01T10:50:45.442Z,21.53
2022-12-01T10:51:41.465Z,21.50
2022-12-01T10:52:37.020Z,21.55
2022-12-01T10:53:32.566Z,21.55
2022-12-01T10:54:28.111Z,21.48
2022-12-01T10:55:23.656Z,21.55
2022-12-01T10:56:08.323Z,21.55
2022-12-01T10:57:03.870Z,21.55
2022-12-01T10:58:02.415Z,21.60
2022-12-01T10:58:55.509Z,21.60
2022-12-01T10:59:39.975Z,21.53
2022-12-01T11:01:02.284Z,21.51
2022-12-01T11:01:42.226Z,21.62
2022-12-01T11:02:45.560Z,21.63
2022-12-01T11:03:40.817Z,21.62
2022-12-01T11:04:36.267Z,21.60
2022-12-01T11:05:31.817Z,21.63
2022-12-01T11:06:27.369Z,21.58
2022-12-01T11:07:22.955Z,21.66
2022-12-01T11:08:07.614Z,21.58
2022-12-01T11:09:03.140Z,21.59
2022-12-01T11:09:58.690Z,21.62
2022-12-01T11:10:54.235Z,21.55
2022-12-01T11:11:49.775Z,21.58
2022-12-01T11:12:34.458Z,21.56
2022-12-01T11:13:30.007Z,21.48
2022-12-01T11:14:25.538Z,21.60
2022-12-01T11:15:21.083Z,21.63
2022-12-01T11:16:16.704Z,21.59
2022-12-01T11:17:12.199Z,21.60
2022-12-01T11:18:07.925Z,21.66
2022-12-01T11:19:03.339Z,21.58
2022-12-01T11:19:58.899Z,21.58
2022-12-01T11:20:54.853Z,21.74
2022-12-01T11:21:50.392Z,21.73
2022-12-01T11:22:45.929Z,21.74
2022-12-01T11:23:41.484Z,21.67
2022-12-01T11:24:26.170Z,21.73
2022-12-01T11:25:21.716Z,21.74
2022-12-01T11:26:17.760Z,21.65
2022-12-01T11:27:02.907Z,21.65
2022-12-01T11:27:47.592Z,21.71
2022-12-01T11:28:43.128Z,21.62
2022-12-01T11:29:38.680Z,21.58
2022-12-01T11:30:34.224Z,21.63
2022-12-01T11:31:29.796Z,21.58
2022-12-01T11:32:25.313Z,21.60
2022-12-01T11:33:20.906Z,21.59
2022-12-01T11:34:16.887Z,21.60
2022-12-01T11:35:12.528Z,21.62
2022-12-01T11:36:10.602Z,21.59
2022-12-01T11:37:04.007Z,21.62
2022-12-01T11:38:28.229Z,21.59
2022-12-01T11:38:44.014Z,21.62
2022-12-01T11:39:39.548Z,21.59
2022-12-01T11:40:35.114Z,21.74
2022-12-01T11:41:30.654Z,21.74
2022-12-01T11:42:26.194Z,21.67
2022-12-01T11:43:21.736Z,21.69
2022-12-01T11:44:43.234Z,21.73
2022-12-01T11:45:24.066Z,21.84
2022-12-01T11:46:19.640Z,21.88
2022-12-01T11:47:22.130Z,21.85
2022-12-01T11:48:10.692Z,21.90
2022-12-01T11:49:06.258Z,21.77
2022-12-01T11:49:51.650Z,21.82
2022-12-01T11:50:46.946Z,21.67
2022-12-01T11:51:42.483Z,21.75
2022-12-01T11:52:38.018Z,21.71